Time;durP1;ratioP1;P1;durP2;ratioP2;P2;SDS_P1;SDS_P2;PMS_P1;PMS_P2;Temp;Humidity;BMP_temperature;BMP_pressure;BME280_temperature;BME280_humidity;BME280_pressure;Samples;Min_cycle;Max_cycle;Signal;HPM_P1;HPM_P2
2021/12/27 00:00:13;;;;;;;141.33;56.53;;;;;;;2.69;100.00;99229.63;5088757;28;20218;-77
2021/12/27 00:02:42;;;;;;;127.17;52.27;;;;;;;2.69;100.00;99228.78;5089182;28;20195;-77
2021/12/27 00:05:10;;;;;;;135.83;61.53;;;;;;;2.72;100.00;99239.75;5088542;28;20674;-78
2021/12/27 00:07:37;;;;;;;136.70;62.67;;;;;;;2.72;100.00;99232.16;5089139;28;20693;-77
2021/12/27 00:10:05;;;;;;;132.27;60.17;;;;;;;2.71;100.00;99225.44;5088531;28;20318;-77
2021/12/27 00:12:32;;;;;;;112.23;54.63;;;;;;;2.76;100.00;99231.31;5088878;28;20575;-77
2021/12/27 00:14:59;;;;;;;135.97;64.13;;;;;;;2.66;100.00;99216.97;5089165;28;20686;-77
2021/12/27 00:17:26;;;;;;;117.53;58.43;;;;;;;2.71;100.00;99222.91;5088955;28;20414;-77
2021/12/27 00:19:55;;;;;;;121.20;59.60;;;;;;;2.71;100.00;99230.50;5088710;28;20219;-77
2021/12/27 00:22:23;;;;;;;125.53;61.10;;;;;;;2.69;100.00;99237.22;5088369;28;20195;-77
2021/12/27 00:24:50;;;;;;;119.23;60.93;;;;;;;2.57;100.00;99224.59;5088600;28;20196;-77
2021/12/27 00:27:18;;;;;;;134.97;57.40;;;;;;;2.73;100.00;99231.31;5088808;28;20195;-77
2021/12/27 00:29:46;;;;;;;128.07;60.03;;;;;;;2.76;100.00;99220.34;5088978;28;20862;-77
2021/12/27 00:32:13;;;;;;;135.40;63.03;;;;;;;2.74;100.00;99212.75;5088649;28;20196;-77
2021/12/27 00:34:40;;;;;;;148.80;62.20;;;;;;;2.74;100.00;99217.81;5090290;28;20205;-76
2021/12/27 00:37:09;;;;;;;134.80;64.13;;;;;;;2.66;100.00;99214.44;5090397;28;20651;-77
2021/12/27 00:39:37;;;;;;;162.83;68.73;;;;;;;2.69;100.00;99224.56;5088302;28;20587;-77
2021/12/27 00:42:05;;;;;;;137.63;63.97;;;;;;;2.63;100.00;99199.28;5090292;28;20207;-77
2021/12/27 00:44:32;;;;;;;123.47;60.23;;;;;;;2.65;100.00;99207.69;5090506;28;20222;-76
2021/12/27 00:46:59;;;;;;;153.53;68.53;;;;;;;2.68;100.00;99217.00;5090393;28;20203;-77
2021/12/27 00:49:26;;;;;;;157.37;65.23;;;;;;;2.67;100.00;99220.34;5090166;28;20594;-77
2021/12/27 00:51:53;;;;;;;139.80;63.80;;;;;;;2.64;100.00;99216.16;5090221;28;20639;-77
2021/12/27 00:54:22;;;;;;;130.20;60.17;;;;;;;2.70;100.00;99215.28;5089928;28;20564;-77
2021/12/27 00:56:48;;;;;;;125.27;60.43;;;;;;;2.65;100.00;99202.63;5090301;28;20199;-77
2021/12/27 00:59:15;;;;;;;123.23;61.33;;;;;;;2.66;100.00;99219.50;5090230;28;20195;-76
2021/12/27 01:01:42;;;;;;;136.50;61.70;;;;;;;2.69;100.00;99214.44;5094292;28;20218;-76
2021/12/27 01:04:09;;;;;;;114.30;57.83;;;;;;;2.70;100.00;99211.06;5094339;28;20675;-77
2021/12/27 01:06:36;;;;;;;132.20;60.60;;;;;;;2.75;100.00;99223.72;5094721;28;20203;-77
2021/12/27 01:09:04;;;;;;;119.83;59.40;;;;;;;2.69;100.00;99224.56;5094108;28;20205;-77
2021/12/27 01:11:41;;;;;;;119.23;55.77;;;;;;;2.71;100.00;99222.06;5093976;28;20230;-77
2021/12/27 01:14:13;;;;;;;117.53;53.63;;;;;;;2.64;100.00;99206.88;5094461;28;20199;-77
2021/12/27 01:16:41;;;;;;;93.93;44.87;;;;;;;2.63;100.00;99229.63;5093036;28;20194;-77
2021/12/27 01:19:09;;;;;;;87.30;42.53;;;;;;;2.40;100.00;99200.97;5093857;28;20203;-77
2021/12/27 01:21:37;;;;;;;78.30;37.73;;;;;;;2.54;100.00;99244.84;5094141;28;20385;-77
2021/12/27 01:24:05;;;;;;;74.37;35.87;;;;;;;2.36;100.00;99209.44;5094048;28;20199;-77
2021/12/27 01:26:33;;;;;;;60.00;34.30;;;;;;;2.44;100.00;99208.59;5093834;28;20211;-77
2021/12/27 01:29:01;;;;;;;62.00;33.77;;;;;;;2.45;100.00;99209.44;5094070;28;20548;-76
2021/12/27 01:31:28;;;;;;;64.20;32.93;;;;;;;2.46;100.00;99221.22;5093823;28;20207;-77
2021/12/27 01:33:55;;;;;;;56.80;31.40;;;;;;;2.39;100.00;99214.50;5093595;28;20192;-77
2021/12/27 01:36:22;;;;;;;52.17;27.63;;;;;;;2.35;100.00;99212.81;5093941;28;20218;-77
2021/12/27 01:38:49;;;;;;;46.47;26.93;;;;;;;2.39;100.00;99209.44;5093550;28;20192;-77
2021/12/27 01:41:18;;;;;;;53.43;29.50;;;;;;;2.46;100.00;99211.94;5093560;28;20590;-77
2021/12/27 01:43:46;;;;;;;50.53;27.30;;;;;;;2.51;100.00;99204.34;5093917;28;20222;-77
2021/12/27 01:46:15;;;;;;;54.60;27.77;;;;;;;2.54;100.00;99209.41;5093502;28;20191;-77
2021/12/27 01:48:47;;;;;;;45.63;24.50;;;;;;;2.52;100.00;99190.88;5093582;28;20248;-77
2021/12/27 01:51:17;;;;;;;49.13;27.13;;;;;;;2.32;100.00;99178.25;5093547;28;20195;-77
2021/12/27 01:53:46;;;;;;;46.93;25.93;;;;;;;2.46;100.00;99175.69;5092553;28;20199;-77
2021/12/27 01:56:15;;;;;;;41.07;23.10;;;;;;;2.39;100.00;99174.03;5093115;28;20202;-77
2021/12/27 01:58:43;;;;;;;42.60;23.67;;;;;;;2.25;100.00;99161.38;5093434;28;20242;-77
2021/12/27 02:01:13;;;;;;;42.13;22.33;;;;;;;2.40;100.00;99151.25;5092450;28;20242;-77
2021/12/27 02:03:41;;;;;;;40.37;22.90;;;;;;;2.37;100.00;99171.47;5091604;28;20199;-77
2021/12/27 02:06:10;;;;;;;46.43;24.70;;;;;;;2.29;100.00;99154.66;5090946;28;20195;-76
2021/12/27 02:08:39;;;;;;;41.70;23.33;;;;;;;2.35;100.00;99165.59;5091547;28;20195;-77
2021/12/27 02:11:07;;;;;;;37.67;23.20;;;;;;;2.32;100.00;99169.81;5090493;28;20219;-77
2021/12/27 02:13:36;;;;;;;38.60;22.53;;;;;;;2.27;100.00;99168.94;5089079;28;20297;-77
2021/12/27 02:16:06;;;;;;;41.23;23.00;;;;;;;2.28;100.00;99188.34;5091179;28;20192;-77
2021/12/27 02:18:35;;;;;;;37.63;22.83;;;;;;;2.22;100.00;99168.13;5087851;28;20201;-77
2021/12/27 02:21:04;;;;;;;39.40;22.90;;;;;;;2.33;100.00;99168.94;5092211;28;20219;-77
2021/12/27 02:23:31;;;;;;;39.57;21.67;;;;;;;2.39;100.00;99179.09;5090750;28;20218;-77
2021/12/27 02:25:58;;;;;;;36.87;22.90;;;;;;;2.46;100.00;99176.53;5090904;28;20206;-77
2021/12/27 02:28:25;;;;;;;35.90;23.03;;;;;;;2.24;100.00;99149.56;5090130;28;20598;-76
2021/12/27 02:30:54;;;;;;;36.43;22.30;;;;;;;2.33;100.00;99164.72;5090809;28;20310;-77
2021/12/27 02:33:22;;;;;;;37.17;21.00;;;;;;;2.31;100.00;99156.31;5090210;28;20195;-76
2021/12/27 02:35:50;;;;;;;40.37;21.33;;;;;;;2.33;100.00;99159.69;5090870;28;20575;-77
2021/12/27 02:38:21;;;;;;;42.53;23.83;;;;;;;2.44;100.00;99154.59;5092124;28;20203;-76
2021/12/27 02:40:51;;;;;;;38.87;21.57;;;;;;;2.38;100.00;99139.44;5092526;28;20306;-77
2021/12/27 02:43:19;;;;;;;38.87;19.97;;;;;;;2.48;100.00;99143.66;5092179;28;20687;-76
2021/12/27 02:45:49;;;;;;;38.80;23.33;;;;;;;2.53;100.00;99140.25;5092590;28;20195;-77
2021/12/27 02:48:21;;;;;;;36.50;21.33;;;;;;;2.56;100.00;99152.06;5092212;28;20203;-77
2021/12/27 02:50:49;;;;;;;37.60;20.67;;;;;;;2.50;100.00;99152.06;5092715;28;20191;-76
2021/12/27 02:53:19;;;;;;;36.23;21.37;;;;;;;2.45;100.00;99153.78;5090861;28;20204;-77
2021/12/27 02:55:48;;;;;;;33.23;20.90;;;;;;;2.28;100.00;99125.97;5092088;28;20283;-76
2021/12/27 02:58:16;;;;;;;46.00;25.27;;;;;;;2.39;100.00;99148.72;5091877;28;20203;-76
2021/12/27 03:00:46;;;;;;;40.03;24.97;;;;;;;2.37;100.00;99145.34;5092097;28;20210;-77
2021/12/27 03:03:13;;;;;;;44.90;23.23;;;;;;;2.35;100.00;99135.25;5091677;28;20682;-76
2021/12/27 03:05:43;;;;;;;40.40;23.33;;;;;;;2.43;100.00;99147.84;5091677;28;20196;-76
2021/12/27 03:08:14;;;;;;;52.20;26.60;;;;;;;2.43;100.00;99145.31;5091741;28;20195;-76
2021/12/27 03:10:44;;;;;;;49.73;28.10;;;;;;;2.45;100.00;99148.72;5091574;28;20230;-77
2021/12/27 03:13:16;;;;;;;44.13;25.70;;;;;;;2.42;100.00;99148.72;5091582;28;20201;-77
2021/12/27 03:15:44;;;;;;;42.97;23.87;;;;;;;2.47;100.00;99147.88;5091893;28;20195;-76
2021/12/27 03:18:12;;;;;;;49.43;25.60;;;;;;;2.47;100.00;99160.50;5091935;28;20678;-76
2021/12/27 03:20:40;;;;;;;45.57;23.70;;;;;;;2.48;100.00;99146.19;5091694;28;20264;-76
2021/12/27 03:23:07;;;;;;;48.50;25.07;;;;;;;2.37;100.00;99131.00;5090821;28;20199;-77
2021/12/27 03:25:34;;;;;;;45.33;25.20;;;;;;;2.54;100.00;99158.81;5090737;28;20200;-76
2021/12/27 03:28:02;;;;;;;52.23;26.87;;;;;;;2.47;100.00;99152.06;5090548;28;20382;-76
2021/12/27 03:30:29;;;;;;;60.13;31.07;;;;;;;2.51;100.00;99168.94;5091363;28;20195;-76
2021/12/27 03:32:56;;;;;;;43.87;27.23;;;;;;;2.39;100.00;99151.25;5091245;28;20683;-76
2021/12/27 03:35:28;;;;;;;58.83;30.73;;;;;;;2.28;100.00;99117.53;5091319;28;20199;-76
2021/12/27 03:37:58;;;;;;;63.17;33.83;;;;;;;2.47;100.00;99152.06;5091510;28;20641;-76
2021/12/27 03:40:27;;;;;;;55.57;33.40;;;;;;;2.52;100.00;99158.81;5091504;28;20215;-77
2021/12/27 03:42:55;;;;;;;57.77;31.50;;;;;;;2.53;100.00;99157.13;5090981;28;20217;-76
2021/12/27 03:45:25;;;;;;;65.77;32.30;;;;;;;2.55;100.00;99155.44;5091149;28;20201;-77
2021/12/27 03:47:53;;;;;;;66.97;34.23;;;;;;;2.56;100.00;99163.00;5091166;28;20659;-77
2021/12/27 03:50:20;;;;;;;75.47;33.93;;;;;;;2.50;100.00;99162.19;5091157;28;20203;-77
2021/12/27 03:52:47;;;;;;;59.77;34.07;;;;;;;2.50;100.00;99167.25;5091033;28;20667;-76
2021/12/27 03:55:14;;;;;;;57.13;34.00;;;;;;;2.44;100.00;99169.78;5090914;28;20217;-77
2021/12/27 03:57:51;;;;;;;61.57;33.03;;;;;;;2.45;100.00;99168.94;5091067;28;20290;-76
2021/12/27 04:00:31;;;;;;;59.93;32.63;;;;;;;2.42;100.00;99163.91;5091114;28;20833;-77
2021/12/27 04:03:01;;;;;;;53.67;32.03;;;;;;;2.49;100.00;99155.44;5091055;28;20233;-76
2021/12/27 04:05:31;;;;;;;63.00;33.00;;;;;;;2.50;100.00;99163.03;5090868;28;20286;-77
2021/12/27 04:08:03;;;;;;;58.17;31.03;;;;;;;2.57;100.00;99166.41;5090657;28;20203;-77
2021/12/27 04:10:31;;;;;;;61.83;33.20;;;;;;;2.55;100.00;99160.50;5089082;28;20643;-76
2021/12/27 04:12:58;;;;;;;61.93;33.87;;;;;;;2.60;100.00;99163.84;5088966;28;20202;-77
2021/12/27 04:15:25;;;;;;;58.93;33.53;;;;;;;2.64;100.00;99165.53;5088768;28;20196;-77
2021/12/27 04:17:53;;;;;;;54.23;30.13;;;;;;;2.50;100.00;99141.94;5088887;28;20272;-77
2021/12/27 04:20:22;;;;;;;52.03;30.60;;;;;;;2.55;100.00;99140.25;5088257;28;20191;-76
2021/12/27 04:22:50;;;;;;;51.10;29.53;;;;;;;2.65;100.00;99157.09;5088710;28;20212;-76
2021/12/27 04:25:19;;;;;;;68.53;31.13;;;;;;;2.54;100.00;99154.59;5088857;28;20687;-76
2021/12/27 04:27:47;;;;;;;58.67;29.77;;;;;;;2.60;100.00;99158.78;5088729;28;20205;-77
2021/12/27 04:30:14;;;;;;;60.10;31.47;;;;;;;2.60;100.00;99161.31;5088580;28;20597;-77
2021/12/27 04:32:42;;;;;;;49.93;28.70;;;;;;;2.58;100.00;99141.09;5088628;28;20218;-77
2021/12/27 04:35:10;;;;;;;57.47;30.40;;;;;;;2.51;100.00;99126.78;5088327;28;20203;-77
2021/12/27 04:37:38;;;;;;;47.60;29.43;;;;;;;2.67;100.00;99147.81;5088327;28;20188;-77
2021/12/27 04:40:08;;;;;;;53.43;29.03;;;;;;;2.64;100.00;99135.19;5088229;28;20206;-77
2021/12/27 04:42:35;;;;;;;52.23;28.40;;;;;;;2.75;100.00;99143.56;5088679;28;20706;-76
2021/12/27 04:45:04;;;;;;;50.90;30.20;;;;;;;2.77;100.00;99141.88;5090305;28;20203;-76
2021/12/27 04:47:31;;;;;;;50.77;29.90;;;;;;;2.80;100.00;99146.94;5090227;28;20195;-76
2021/12/27 04:49:58;;;;;;;50.90;28.90;;;;;;;2.81;100.00;99153.66;5090199;28;20707;-76
2021/12/27 04:52:25;;;;;;;50.70;29.53;;;;;;;2.80;100.00;99141.88;5090032;28;20667;-75
2021/12/27 04:54:53;;;;;;;58.90;30.77;;;;;;;2.84;100.00;99135.97;5089773;28;20290;-76
2021/12/27 04:57:20;;;;;;;52.27;30.23;;;;;;;2.87;100.00;99138.47;5089738;28;20205;-76
2021/12/27 04:59:47;;;;;;;49.13;27.63;;;;;;;2.82;100.00;99134.25;5089827;28;20282;-76
2021/12/27 05:02:14;;;;;;;49.60;29.83;;;;;;;2.79;100.00;99142.72;5089830;28;20237;-76
2021/12/27 05:04:41;;;;;;;47.50;27.97;;;;;;;2.84;100.00;99143.56;5090086;28;20210;-76
2021/12/27 05:07:08;;;;;;;49.67;27.33;;;;;;;2.85;100.00;99145.22;5089860;28;20203;-76
2021/12/27 05:09:35;;;;;;;53.87;28.87;;;;;;;2.60;100.00;99108.19;5089759;28;20214;-76
2021/12/27 05:12:04;;;;;;;50.47;27.30;;;;;;;2.66;100.00;99118.28;5089823;28;20203;-76
2021/12/27 05:14:30;;;;;;;50.83;28.90;;;;;;;2.84;100.00;99165.50;5089934;28;20192;-76
2021/12/27 05:16:58;;;;;;;51.27;26.73;;;;;;;2.87;100.00;99163.78;5089969;28;20191;-76
2021/12/27 05:19:25;;;;;;;45.20;27.83;;;;;;;2.88;100.00;99155.34;5089589;28;20647;-76
2021/12/27 05:21:52;;;;;;;46.73;27.63;;;;;;;2.85;100.00;99157.88;5089653;28;20329;-76
2021/12/27 05:24:21;;;;;;;50.93;27.93;;;;;;;2.84;100.00;99158.75;5090103;28;20270;-76
2021/12/27 05:26:49;;;;;;;53.90;28.40;;;;;;;2.87;100.00;99166.34;5089877;28;20206;-76
2021/12/27 05:29:18;;;;;;;44.60;26.93;;;;;;;2.84;100.00;99158.75;5089916;28;20206;-76
2021/12/27 05:31:45;;;;;;;47.97;27.40;;;;;;;2.95;100.00;99171.34;5089667;28;20668;-76
2021/12/27 05:34:14;;;;;;;50.80;28.07;;;;;;;2.92;100.00;99167.13;5089602;28;20203;-76
2021/12/27 05:36:42;;;;;;;50.93;28.13;;;;;;;2.96;100.00;99162.91;5089812;28;20208;-75
2021/12/27 05:39:09;;;;;;;45.10;25.60;;;;;;;2.89;100.00;99141.84;5088505;28;20227;-76
2021/12/27 05:41:36;;;;;;;42.93;25.93;;;;;;;2.96;100.00;99163.75;5085032;28;20227;-77
2021/12/27 05:44:04;;;;;;;53.47;30.93;;;;;;;2.92;100.00;99172.19;5089235;28;20235;-76
2021/12/27 05:46:32;;;;;;;50.30;29.63;;;;;;;2.96;100.00;99166.28;5091628;28;20356;-76
2021/12/27 05:48:59;;;;;;;86.37;41.00;;;;;;;2.84;100.00;99161.28;5092987;28;20195;-76
2021/12/27 05:51:26;;;;;;;87.63;43.67;;;;;;;2.91;100.00;99155.31;5093476;28;20204;-76
2021/12/27 05:53:53;;;;;;;86.80;44.43;;;;;;;2.80;100.00;99153.69;5093883;28;20286;-76
2021/12/27 05:56:20;;;;;;;86.50;45.53;;;;;;;2.88;100.00;99175.59;5093233;28;20205;-76
2021/12/27 05:58:47;;;;;;;96.57;46.23;;;;;;;2.87;100.00;99168.00;5093227;28;20287;-75
2021/12/27 06:01:14;;;;;;;90.43;45.83;;;;;;;2.87;100.00;99173.91;5092865;28;20196;-76
2021/12/27 06:03:42;;;;;;;98.90;45.30;;;;;;;2.93;100.00;99163.78;5093333;28;20586;-75
2021/12/27 06:06:09;;;;;;;49.50;27.43;;;;;;;2.80;100.00;99159.59;5092936;28;20605;-76
2021/12/27 06:08:36;;;;;;;32.43;20.87;;;;;;;2.81;100.00;99168.03;5093206;28;20206;-75
2021/12/27 06:11:03;;;;;;;27.67;18.30;;;;;;;2.81;100.00;99161.25;5092530;28;20314;-75
2021/12/27 06:13:30;;;;;;;33.70;19.57;;;;;;;2.82;100.00;99165.47;5092876;28;20199;-76
2021/12/27 06:15:57;;;;;;;34.60;20.83;;;;;;;2.91;100.00;99149.44;5092498;28;20582;-75
2021/12/27 06:18:25;;;;;;;36.80;22.73;;;;;;;2.83;100.00;99152.00;5092673;28;20614;-76
2021/12/27 06:20:53;;;;;;;35.97;22.87;;;;;;;2.85;100.00;99150.28;5093135;28;20205;-76
2021/12/27 06:23:20;;;;;;;89.97;43.50;;;;;;;2.83;100.00;99141.00;5092376;28;20218;-75
2021/12/27 06:25:47;;;;;;;74.70;37.90;;;;;;;2.77;100.00;99131.75;5092617;28;20207;-70
2021/12/27 06:28:14;;;;;;;205.00;84.90;;;;;;;2.81;100.00;99127.53;5091220;28;20199;-70
2021/12/27 06:30:42;;;;;;;82.23;43.70;;;;;;;2.94;100.00;99160.38;5092806;28;20298;-71
2021/12/27 06:33:10;;;;;;;83.33;42.77;;;;;;;3.00;100.00;99155.31;5091538;28;20195;-70
2021/12/27 06:35:37;;;;;;;57.73;31.57;;;;;;;3.09;100.00;99162.88;5092531;28;20196;-71
2021/12/27 06:38:05;;;;;;;299.07;124.23;;;;;;;3.09;100.00;99145.13;5091904;28;20199;-71
2021/12/27 06:40:32;;;;;;;175.00;77.40;;;;;;;3.12;100.00;99154.41;5091888;28;20191;-70
2021/12/27 06:42:59;;;;;;;121.37;55.77;;;;;;;3.15;100.00;99155.25;5092646;28;20586;-71
2021/12/27 06:45:26;;;;;;;87.07;42.03;;;;;;;3.23;100.00;99169.56;5091838;28;20203;-71
2021/12/27 06:47:53;;;;;;;66.93;31.43;;;;;;;3.23;100.00;99141.69;5092493;28;20214;-71
2021/12/27 06:50:21;;;;;;;50.40;27.03;;;;;;;3.34;100.00;99168.66;5091973;28;20195;-71
2021/12/27 06:52:48;;;;;;;227.90;130.40;;;;;;;3.40;100.00;99165.22;5092505;28;20214;-71
2021/12/27 06:55:17;;;;;;;73.97;44.63;;;;;;;3.34;100.00;99147.53;5092044;28;20647;-71
2021/12/27 06:57:45;;;;;;;70.17;38.27;;;;;;;3.34;100.00;99145.84;5091392;28;20187;-71
2021/12/27 07:00:14;;;;;;;63.33;38.83;;;;;;;3.46;100.00;99144.94;5091930;28;20654;-71
2021/12/27 07:02:42;;;;;;;75.30;44.97;;;;;;;3.42;100.00;99146.66;5091119;28;20683;-71
2021/12/27 07:05:10;;;;;;;94.43;49.17;;;;;;;3.37;100.00;99135.69;5091740;28;20196;-71
2021/12/27 07:07:37;;;;;;;112.53;57.10;;;;;;;3.50;100.00;99141.53;5091696;28;20208;-71
2021/12/27 07:10:05;;;;;;;108.17;52.43;;;;;;;3.58;100.00;99139.81;5091830;28;20623;-71
2021/12/27 07:12:34;;;;;;;84.77;46.77;;;;;;;3.52;100.00;99139.84;5087773;28;20195;-72
2021/12/27 07:15:01;;;;;;;114.80;54.63;;;;;;;3.58;100.00;99140.66;5089806;28;20280;-71
2021/12/27 07:17:28;;;;;;;113.37;51.27;;;;;;;3.56;100.00;99151.63;5089965;28;20754;-71
2021/12/27 07:19:55;;;;;;;123.97;53.30;;;;;;;3.56;100.00;99156.69;5088326;28;20691;-71
2021/12/27 07:22:22;;;;;;;87.53;43.80;;;;;;;3.73;100.00;99172.66;5090496;28;20323;-71
2021/12/27 07:24:50;;;;;;;80.23;40.60;;;;;;;3.82;100.00;99170.03;5090630;28;20738;-72
2021/12/27 07:27:17;;;;;;;77.20;38.37;;;;;;;3.87;100.00;99163.28;5090691;28;20195;-72
2021/12/27 07:29:45;;;;;;;77.77;40.37;;;;;;;3.97;100.00;99164.88;5088953;28;20602;-70
2021/12/27 07:32:12;;;;;;;78.03;40.17;;;;;;;3.93;100.00;99157.31;5087970;28;20208;-58
2021/12/27 07:34:40;;;;;;;107.03;48.77;;;;;;;4.10;100.00;99166.44;5088430;28;20207;-59
2021/12/27 07:37:07;;;;;;;108.90;53.13;;;;;;;4.15;100.00;99166.41;5086998;28;20208;-71
2021/12/27 07:39:34;;;;;;;91.87;48.27;;;;;;;4.14;100.00;99168.13;5087435;28;20209;-72
2021/12/27 07:42:01;;;;;;;80.60;44.77;;;;;;;4.23;100.00;99173.09;5086518;28;20210;-71
2021/12/27 07:44:28;;;;;;;81.97;40.80;;;;;;;4.29;100.00;99176.47;5089138;28;20203;-74
2021/12/27 07:46:56;;;;;;;86.90;45.27;;;;;;;4.37;100.00;99169.59;5088643;28;20230;-74
2021/12/27 07:49:23;;;;;;;85.23;43.17;;;;;;;4.39;100.00;99162.84;5088854;28;20204;-70
2021/12/27 07:51:50;;;;;;;102.93;47.97;;;;;;;4.48;100.00;99180.50;5088845;28;20563;-71
2021/12/27 07:54:17;;;;;;;82.23;41.67;;;;;;;4.33;100.00;99151.03;5089488;28;20200;-71
2021/12/27 07:56:44;;;;;;;89.27;41.20;;;;;;;4.53;100.00;99181.31;5089818;28;20209;-73
2021/12/27 07:59:11;;;;;;;76.53;38.97;;;;;;;4.51;100.00;99177.94;5089803;28;20202;-72
2021/12/27 08:01:40;;;;;;;70.20;39.13;;;;;;;4.57;100.00;99153.34;5087252;28;20659;-71
2021/12/27 08:04:09;;;;;;;79.30;41.03;;;;;;;4.58;100.00;99164.34;5089438;28;20220;-72
2021/12/27 08:06:37;;;;;;;178.93;100.77;;;;;;;4.60;100.00;99157.53;5087692;28;20199;-72
2021/12/27 08:09:05;;;;;;;145.90;73.23;;;;;;;4.59;100.00;99150.78;5087394;28;20222;-71
2021/12/27 08:11:32;;;;;;;97.27;55.30;;;;;;;4.64;100.00;99144.81;5088454;28;20725;-71
2021/12/27 08:13:59;;;;;;;112.83;55.90;;;;;;;4.63;100.00;99142.28;5087885;28;20202;-71
2021/12/27 08:16:27;;;;;;;119.17;58.67;;;;;;;4.56;100.00;99133.88;5088399;28;20210;-70
2021/12/27 08:18:54;;;;;;;211.97;94.63;;;;;;;4.56;100.00;99125.44;5089093;28;20204;-70
2021/12/27 08:21:24;;;;;;;126.70;63.37;;;;;;;4.72;100.00;99142.19;5088633;28;20604;-70
2021/12/27 08:23:52;;;;;;;88.83;44.27;;;;;;;4.79;100.00;99166.66;5088762;28;20211;-71
2021/12/27 08:26:19;;;;;;;74.77;42.93;;;;;;;4.85;100.00;99136.09;5088991;28;21878;-70
2021/12/27 08:28:49;;;;;;;58.13;34.93;;;;;;;4.89;100.00;99144.53;5088363;28;20595;-70
2021/12/27 08:31:16;;;;;;;50.43;32.43;;;;;;;5.01;100.00;99157.13;5087471;28;20211;-70
2021/12/27 08:33:42;;;;;;;59.10;32.93;;;;;;;5.04;100.00;99162.16;5089041;28;20207;-70
2021/12/27 08:36:11;;;;;;;48.37;30.67;;;;;;;5.03;100.00;99147.75;5089391;28;20222;-71
2021/12/27 08:38:39;;;;;;;54.10;31.37;;;;;;;5.18;100.00;99153.50;5088771;28;20199;-71
2021/12/27 08:41:06;;;;;;;57.17;33.77;;;;;;;5.24;100.00;99163.56;5088294;28;20211;-71
2021/12/27 08:43:33;;;;;;;58.97;33.40;;;;;;;5.17;100.00;99135.75;5089412;28;20219;-71
2021/12/27 08:46:00;;;;;;;60.93;34.20;;;;;;;5.35;100.00;99154.97;5087966;28;20578;-70
2021/12/27 08:48:27;;;;;;;79.40;40.40;;;;;;;5.21;100.00;99125.50;5086235;28;20211;-70
2021/12/27 08:50:54;;;;;;;86.00;46.10;;;;;;;5.30;100.00;99148.25;5088321;28;20248;-70
2021/12/27 08:53:21;;;;;;;64.13;38.73;;;;;;;5.29;100.00;99127.94;5086463;28;20195;-70
2021/12/27 08:55:50;;;;;;;62.90;38.33;;;;;;;5.39;100.00;99142.22;5088725;28;20237;-72
2021/12/27 08:58:17;;;;;;;63.50;37.20;;;;;;;5.42;100.00;99152.34;5086837;28;20208;-71
2021/12/27 09:00:45;;;;;;;62.30;35.53;;;;;;;5.50;100.00;99142.91;5089033;28;20210;-72
2021/12/27 09:03:12;;;;;;;55.37;34.30;;;;;;;5.43;100.00;99137.94;5090495;28;20617;-71
2021/12/27 09:05:39;;;;;;;62.23;35.83;;;;;;;5.34;100.00;99127.88;5088819;28;20203;-68
2021/12/27 09:08:06;;;;;;;50.97;32.70;;;;;;;5.45;100.00;99136.19;5085705;28;20675;-67
2021/12/27 09:10:33;;;;;;;58.17;33.80;;;;;;;5.49;100.00;99125.13;5086237;28;20603;-69
2021/12/27 09:13:02;;;;;;;58.10;32.90;;;;;;;5.49;100.00;99136.16;5087457;28;20196;-69
2021/12/27 09:15:29;;;;;;;56.10;33.10;;;;;;;5.35;100.00;99101.59;5086646;28;20199;-68
2021/12/27 09:17:56;;;;;;;60.27;34.87;;;;;;;5.44;100.00;99129.44;5089223;28;20203;-70
2021/12/27 09:20:24;;;;;;;61.63;37.17;;;;;;;5.49;100.00;99123.44;5088222;28;20600;-69
2021/12/27 09:22:51;;;;;;;84.37;45.73;;;;;;;5.44;100.00;99101.47;5092556;28;20215;-69
2021/12/27 09:25:18;;;;;;;82.07;44.03;;;;;;;5.51;100.00;99118.31;5092159;28;20603;-70
2021/12/27 09:27:45;;;;;;;74.77;42.97;;;;;;;5.59;100.00;99114.78;5091704;28;20195;-69
2021/12/27 09:30:14;;;;;;;85.40;43.63;;;;;;;5.63;100.00;99135.94;5090581;28;20209;-69
2021/12/27 09:32:40;;;;;;;68.83;38.37;;;;;;;5.68;100.00;99129.09;5092781;28;20199;-70
2021/12/27 09:35:08;;;;;;;57.60;36.03;;;;;;;5.70;100.00;99130.75;5090976;28;20212;-69
2021/12/27 09:37:36;;;;;;;62.10;35.60;;;;;;;5.71;100.00;99123.97;5089437;28;20199;-69
2021/12/27 09:40:03;;;;;;;62.87;33.53;;;;;;;5.64;100.00;99097.78;5091611;28;20199;-70
2021/12/27 09:42:31;;;;;;;54.67;31.10;;;;;;;5.70;100.00;99104.47;5091757;28;20695;-69
2021/12/27 09:44:58;;;;;;;49.87;31.83;;;;;;;5.79;100.00;99102.63;5086561;28;20710;-69
2021/12/27 09:47:26;;;;;;;46.60;29.20;;;;;;;5.83;100.00;99098.31;5092408;28;20195;-69
2021/12/27 09:49:53;;;;;;;65.90;36.00;;;;;;;5.73;100.00;99096.78;5091393;28;20209;-69
2021/12/27 09:52:20;;;;;;;58.83;33.07;;;;;;;5.66;100.00;99079.94;5091304;28;20580;-70
2021/12/27 09:54:47;;;;;;;57.40;32.47;;;;;;;5.74;100.00;99119.66;5091997;28;20199;-69
2021/12/27 09:57:15;;;;;;;60.63;35.23;;;;;;;5.73;100.00;99081.53;5090393;28;20244;-69
2021/12/27 09:59:42;;;;;;;46.50;29.80;;;;;;;5.87;100.00;99105.09;5092176;28;20203;-70
2021/12/27 10:02:09;;;;;;;48.10;30.63;;;;;;;5.87;100.00;99105.09;5093011;28;20209;-70
2021/12/27 10:04:38;;;;;;;42.77;27.07;;;;;;;5.94;100.00;99100.75;5093530;28;20215;-70
2021/12/27 10:07:05;;;;;;;44.73;28.70;;;;;;;5.96;100.00;99086.28;5092367;28;20687;-70
2021/12/27 10:09:34;;;;;;;41.73;28.10;;;;;;;6.03;100.00;99085.31;5093362;28;20590;-70
2021/12/27 10:12:06;;;;;;;46.57;28.23;;;;;;;6.07;100.00;99071.69;5089050;28;20911;-70
2021/12/27 10:14:34;;;;;;;50.53;29.67;;;;;;;6.12;100.00;99080.91;5091711;28;20199;-70
2021/12/27 10:17:10;;;;;;;52.30;30.13;;;;;;;6.12;100.00;99085.16;5091348;28;20203;-69
2021/12/27 10:19:39;;;;;;;49.77;29.77;;;;;;;6.14;100.00;99073.25;5087205;28;20205;-69
2021/12/27 10:22:11;;;;;;;46.60;27.90;;;;;;;6.15;100.00;99074.91;5092793;28;20203;-69
2021/12/27 10:24:39;;;;;;;44.67;29.30;;;;;;;6.14;100.00;99058.00;5088637;28;20247;-69
2021/12/27 10:27:07;;;;;;;43.20;26.27;;;;;;;6.20;100.00;99062.97;5084833;28;20204;-69
2021/12/27 10:29:36;;;;;;;42.80;26.33;;;;;;;6.17;100.00;99061.28;5092167;28;20199;-69
2021/12/27 10:32:06;;;;;;;38.30;25.13;;;;;;;6.25;100.00;99064.56;5090999;28;20318;-69
2021/12/27 10:34:35;;;;;;;41.17;26.63;;;;;;;6.30;100.00;99055.13;5089453;28;20199;-69
2021/12/27 10:37:08;;;;;;;44.07;26.67;;;;;;;6.37;100.00;99048.19;5091615;28;20222;-69
2021/12/27 10:39:51;;;;;;;82.40;41.50;;;;;;;6.38;100.00;99041.41;5090865;28;20206;-69
2021/12/27 10:42:21;;;;;;;55.43;30.93;;;;;;;6.34;100.00;99041.47;5088594;28;20199;-69
2021/12/27 10:44:53;;;;;;;38.50;26.63;;;;;;;6.41;100.00;99049.84;5087419;28;20250;-69
2021/12/27 10:47:33;;;;;;;51.00;30.13;;;;;;;6.41;100.00;99036.25;5089633;28;20203;-70
2021/12/27 10:50:05;;;;;;;47.87;29.07;;;;;;;6.45;100.00;99032.78;5090895;28;20210;-69
2021/12/27 10:52:51;;;;;;;45.37;29.33;;;;;;;6.48;100.00;99037.81;5089452;28;20203;-69
2021/12/27 10:55:20;;;;;;;57.00;31.17;;;;;;;6.49;100.00;99040.34;5090437;28;20275;-70
2021/12/27 10:57:48;;;;;;;60.40;32.20;;;;;;;6.52;100.00;99044.53;5089694;28;20206;-69
2021/12/27 11:00:17;;;;;;;60.13;34.83;;;;;;;6.56;100.00;99035.97;5090790;28;20209;-70
2021/12/27 11:02:44;;;;;;;58.73;34.17;;;;;;;6.55;100.00;99030.03;5090526;28;20229;-69
2021/12/27 11:05:16;;;;;;;62.53;33.37;;;;;;;6.57;100.00;99017.25;5089502;28;20223;-69
2021/12/27 11:07:43;;;;;;;58.57;35.13;;;;;;;6.50;100.00;99005.53;5089367;28;20330;-69
2021/12/27 11:10:12;;;;;;;54.90;34.93;;;;;;;6.49;100.00;98996.22;5089767;28;20227;-69
2021/12/27 11:12:39;;;;;;;63.27;35.27;;;;;;;6.58;100.00;98993.47;5090085;28;20418;-69
2021/12/27 11:15:10;;;;;;;64.07;36.97;;;;;;;6.50;100.00;98980.06;5090562;28;20199;-70
2021/12/27 11:17:38;;;;;;;59.33;36.30;;;;;;;6.60;100.00;98996.81;5088885;28;20207;-70
2021/12/27 11:20:09;;;;;;;74.50;42.63;;;;;;;6.61;100.00;99003.59;5086754;28;20227;-70